sensor_id;sensor_type;location;lat;lon;timestamp;P1;durP1;ratioP1;P2;durP2;ratioP2
73776;SDS011;62088;50.240;2.696;2023-08-12T00:01:04;6.55;;;3.15;;
73776;SDS011;62088;50.240;2.696;2023-08-12T00:03:32;6.95;;;2.85;;
73776;SDS011;62088;50.240;2.696;2023-08-12T00:05:59;8.18;;;3.35;;
73776;SDS011;62088;50.240;2.696;2023-08-12T00:08:31;9.63;;;4.07;;
73776;SDS011;62088;50.240;2.696;2023-08-12T00:10:58;6.85;;;3.05;;
73776;SDS011;62088;50.240;2.696;2023-08-12T00:13:26;8.90;;;3.97;;
73776;SDS011;62088;50.240;2.696;2023-08-12T00:15:53;7.90;;;3.22;;
73776;SDS011;62088;50.240;2.696;2023-08-12T00:18:21;7.05;;;3.30;;
73776;SDS011;62088;50.240;2.696;2023-08-12T00:20:49;10.60;;;3.40;;
73776;SDS011;62088;50.240;2.696;2023-08-12T00:23:18;8.75;;;3.70;;
73776;SDS011;62088;50.240;2.696;2023-08-12T00:25:45;7.82;;;3.67;;
73776;SDS011;62088;50.240;2.696;2023-08-12T00:28:12;6.00;;;3.13;;
73776;SDS011;62088;50.240;2.696;2023-08-12T00:30:39;8.48;;;3.28;;
73776;SDS011;62088;50.240;2.696;2023-08-12T00:33:07;6.72;;;3.30;;
73776;SDS011;62088;50.240;2.696;2023-08-12T00:35:35;6.47;;;3.45;;
73776;SDS011;62088;50.240;2.696;2023-08-12T00:38:02;7.65;;;3.20;;
73776;SDS011;62088;50.240;2.696;2023-08-12T00:40:29;8.00;;;3.20;;
73776;SDS011;62088;50.240;2.696;2023-08-12T00:42:56;8.40;;;3.38;;
73776;SDS011;62088;50.240;2.696;2023-08-12T00:45:23;5.47;;;3.13;;
73776;SDS011;62088;50.240;2.696;2023-08-12T00:47:50;5.78;;;2.72;;
73776;SDS011;62088;50.240;2.696;2023-08-12T00:50:18;11.35;;;2.95;;
73776;SDS011;62088;50.240;2.696;2023-08-12T00:52:46;5.70;;;2.90;;
73776;SDS011;62088;50.240;2.696;2023-08-12T00:55:13;8.45;;;3.25;;
73776;SDS011;62088;50.240;2.696;2023-08-12T00:57:40;6.30;;;3.35;;
73776;SDS011;62088;50.240;2.696;2023-08-12T01:00:08;5.88;;;2.90;;
73776;SDS011;62088;50.240;2.696;2023-08-12T01:02:35;7.10;;;3.00;;
73776;SDS011;62088;50.240;2.696;2023-08-12T01:05:03;7.55;;;3.20;;
73776;SDS011;62088;50.240;2.696;2023-08-12T01:07:31;7.40;;;3.00;;
73776;SDS011;62088;50.240;2.696;2023-08-12T01:09:59;7.20;;;3.17;;
73776;SDS011;62088;50.240;2.696;2023-08-12T01:12:28;5.80;;;2.72;;
73776;SDS011;62088;50.240;2.696;2023-08-12T01:15:04;6.82;;;2.95;;
73776;SDS011;62088;50.240;2.696;2023-08-12T01:17:36;5.20;;;2.80;;
73776;SDS011;62088;50.240;2.696;2023-08-12T01:20:09;5.90;;;2.42;;
73776;SDS011;62088;50.240;2.696;2023-08-12T01:22:40;5.05;;;2.45;;
73776;SDS011;62088;50.240;2.696;2023-08-12T01:25:10;7.15;;;2.45;;
73776;SDS011;62088;50.240;2.696;2023-08-12T01:27:37;5.25;;;2.50;;
73776;SDS011;62088;50.240;2.696;2023-08-12T01:30:05;4.72;;;2.38;;
73776;SDS011;62088;50.240;2.696;2023-08-12T01:35:20;5.55;;;2.17;;
73776;SDS011;62088;50.240;2.696;2023-08-12T01:37:53;6.15;;;2.60;;
73776;SDS011;62088;50.240;2.696;2023-08-12T01:40:22;6.10;;;2.28;;
73776;SDS011;62088;50.240;2.696;2023-08-12T01:42:50;4.80;;;2.05;;
73776;SDS011;62088;50.240;2.696;2023-08-12T01:45:18;3.97;;;1.77;;
73776;SDS011;62088;50.240;2.696;2023-08-12T01:47:46;4.97;;;1.85;;
73776;SDS011;62088;50.240;2.696;2023-08-12T01:50:14;3.35;;;1.63;;
73776;SDS011;62088;50.240;2.696;2023-08-12T01:52:41;3.63;;;1.70;;
73776;SDS011;62088;50.240;2.696;2023-08-12T01:55:08;4.03;;;1.60;;
73776;SDS011;62088;50.240;2.696;2023-08-12T01:57:36;3.85;;;1.42;;
73776;SDS011;62088;50.240;2.696;2023-08-12T02:00:04;4.55;;;1.52;;
73776;SDS011;62088;50.240;2.696;2023-08-12T02:02:50;9.27;;;1.60;;
73776;SDS011;62088;50.240;2.696;2023-08-12T02:05:17;2.85;;;1.38;;
73776;SDS011;62088;50.240;2.696;2023-08-12T02:07:44;3.53;;;1.52;;
73776;SDS011;62088;50.240;2.696;2023-08-12T02:10:12;2.70;;;1.15;;
73776;SDS011;62088;50.240;2.696;2023-08-12T02:12:41;2.63;;;1.25;;
73776;SDS011;62088;50.240;2.696;2023-08-12T02:15:08;2.88;;;1.33;;
73776;SDS011;62088;50.240;2.696;2023-08-12T02:17:36;3.25;;;1.33;;
73776;SDS011;62088;50.240;2.696;2023-08-12T02:20:03;2.38;;;1.13;;
73776;SDS011;62088;50.240;2.696;2023-08-12T02:22:31;2.42;;;0.90;;
73776;SDS011;62088;50.240;2.696;2023-08-12T02:24:58;3.47;;;1.30;;
73776;SDS011;62088;50.240;2.696;2023-08-12T02:27:26;3.08;;;0.95;;
73776;SDS011;62088;50.240;2.696;2023-08-12T02:29:53;7.47;;;1.10;;
73776;SDS011;62088;50.240;2.696;2023-08-12T02:32:20;3.78;;;1.10;;
73776;SDS011;62088;50.240;2.696;2023-08-12T02:34:47;2.80;;;1.02;;
73776;SDS011;62088;50.240;2.696;2023-08-12T02:37:14;3.00;;;1.35;;
73776;SDS011;62088;50.240;2.696;2023-08-12T02:39:41;6.28;;;1.10;;
73776;SDS011;62088;50.240;2.696;2023-08-12T02:42:09;4.55;;;1.55;;
73776;SDS011;62088;50.240;2.696;2023-08-12T02:44:36;3.50;;;1.35;;
73776;SDS011;62088;50.240;2.696;2023-08-12T02:47:03;4.40;;;1.25;;
73776;SDS011;62088;50.240;2.696;2023-08-12T02:49:30;5.38;;;1.60;;
73776;SDS011;62088;50.240;2.696;2023-08-12T02:51:57;7.53;;;2.22;;
73776;SDS011;62088;50.240;2.696;2023-08-12T02:54:24;4.45;;;1.60;;
73776;SDS011;62088;50.240;2.696;2023-08-12T02:56:51;2.65;;;1.30;;
73776;SDS011;62088;50.240;2.696;2023-08-12T02:59:18;4.18;;;1.40;;
73776;SDS011;62088;50.240;2.696;2023-08-12T03:01:45;2.83;;;1.30;;
73776;SDS011;62088;50.240;2.696;2023-08-12T03:04:12;3.55;;;1.25;;
73776;SDS011;62088;50.240;2.696;2023-08-12T03:06:39;3.05;;;1.20;;
73776;SDS011;62088;50.240;2.696;2023-08-12T03:09:07;3.80;;;1.20;;
73776;SDS011;62088;50.240;2.696;2023-08-12T03:11:34;4.15;;;1.20;;
73776;SDS011;62088;50.240;2.696;2023-08-12T03:14:03;2.38;;;1.20;;
73776;SDS011;62088;50.240;2.696;2023-08-12T03:16:30;3.47;;;1.02;;
73776;SDS011;62088;50.240;2.696;2023-08-12T03:18:57;6.32;;;1.40;;
73776;SDS011;62088;50.240;2.696;2023-08-12T03:21:24;4.68;;;1.20;;
73776;SDS011;62088;50.240;2.696;2023-08-12T03:23:52;2.35;;;0.90;;
73776;SDS011;62088;50.240;2.696;2023-08-12T03:26:19;1.35;;;0.60;;
73776;SDS011;62088;50.240;2.696;2023-08-12T03:28:47;3.70;;;0.50;;
73776;SDS011;62088;50.240;2.696;2023-08-12T03:31:17;1.77;;;0.68;;
73776;SDS011;62088;50.240;2.696;2023-08-12T03:33:44;2.28;;;0.63;;
73776;SDS011;62088;50.240;2.696;2023-08-12T03:36:13;1.20;;;0.40;;
73776;SDS011;62088;50.240;2.696;2023-08-12T03:38:40;1.52;;;0.47;;
73776;SDS011;62088;50.240;2.696;2023-08-12T03:41:12;2.33;;;0.65;;
73776;SDS011;62088;50.240;2.696;2023-08-12T03:43:41;6.97;;;0.52;;
73776;SDS011;62088;50.240;2.696;2023-08-12T03:46:08;2.03;;;0.45;;
73776;SDS011;62088;50.240;2.696;2023-08-12T03:48:36;3.80;;;0.50;;
73776;SDS011;62088;50.240;2.696;2023-08-12T03:51:03;1.52;;;0.45;;
73776;SDS011;62088;50.240;2.696;2023-08-12T03:53:30;1.77;;;0.40;;
73776;SDS011;62088;50.240;2.696;2023-08-12T03:55:57;1.73;;;0.50;;
73776;SDS011;62088;50.240;2.696;2023-08-12T03:58:25;2.92;;;0.50;;
73776;SDS011;62088;50.240;2.696;2023-08-12T04:00:52;0.50;;;0.20;;
73776;SDS011;62088;50.240;2.696;2023-08-12T04:03:19;2.13;;;0.55;;
73776;SDS011;62088;50.240;2.696;2023-08-12T04:05:48;0.70;;;0.32;;
73776;SDS011;62088;50.240;2.696;2023-08-12T04:08:16;4.63;;;0.50;;
73776;SDS011;62088;50.240;2.696;2023-08-12T04:10:46;2.00;;;0.47;;
73776;SDS011;62088;50.240;2.696;2023-08-12T04:13:14;1.05;;;0.30;;
73776;SDS011;62088;50.240;2.696;2023-08-12T04:15:41;0.95;;;0.40;;
73776;SDS011;62088;50.240;2.696;2023-08-12T04:18:09;1.08;;;0.40;;
73776;SDS011;62088;50.240;2.696;2023-08-12T04:20:36;1.40;;;0.40;;
73776;SDS011;62088;50.240;2.696;2023-08-12T04:23:04;2.20;;;0.30;;
73776;SDS011;62088;50.240;2.696;2023-08-12T04:25:31;0.70;;;0.30;;
73776;SDS011;62088;50.240;2.696;2023-08-12T04:27:59;1.52;;;0.30;;
73776;SDS011;62088;50.240;2.696;2023-08-12T04:30:27;2.05;;;0.40;;
73776;SDS011;62088;50.240;2.696;2023-08-12T04:32:55;1.55;;;0.40;;
73776;SDS011;62088;50.240;2.696;2023-08-12T04:35:25;1.33;;;0.30;;
73776;SDS011;62088;50.240;2.696;2023-08-12T04:37:52;1.05;;;0.30;;
73776;SDS011;62088;50.240;2.696;2023-08-12T04:40:20;0.43;;;0.28;;
73776;SDS011;62088;50.240;2.696;2023-08-12T04:42:49;1.35;;;0.30;;
73776;SDS011;62088;50.240;2.696;2023-08-12T04:45:17;2.30;;;0.60;;
73776;SDS011;62088;50.240;2.696;2023-08-12T04:47:44;1.08;;;0.50;;
73776;SDS011;62088;50.240;2.696;2023-08-12T04:50:14;1.17;;;0.40;;
73776;SDS011;62088;50.240;2.696;2023-08-12T04:52:41;2.60;;;0.60;;
73776;SDS011;62088;50.240;2.696;2023-08-12T04:55:09;4.10;;;0.50;;
73776;SDS011;62088;50.240;2.696;2023-08-12T04:57:41;1.35;;;0.40;;
73776;SDS011;62088;50.240;2.696;2023-08-12T05:00:08;3.38;;;0.40;;
73776;SDS011;62088;50.240;2.696;2023-08-12T05:02:36;2.92;;;0.52;;
73776;SDS011;62088;50.240;2.696;2023-08-12T05:05:03;1.25;;;0.45;;
73776;SDS011;62088;50.240;2.696;2023-08-12T05:07:33;2.10;;;0.50;;
73776;SDS011;62088;50.240;2.696;2023-08-12T05:10:02;2.35;;;0.50;;
73776;SDS011;62088;50.240;2.696;2023-08-12T05:12:30;4.90;;;0.80;;
73776;SDS011;62088;50.240;2.696;2023-08-12T05:14:59;2.05;;;0.60;;
73776;SDS011;62088;50.240;2.696;2023-08-12T05:17:26;2.25;;;0.93;;
73776;SDS011;62088;50.240;2.696;2023-08-12T05:19:54;5.10;;;0.85;;
73776;SDS011;62088;50.240;2.696;2023-08-12T05:22:21;3.55;;;0.82;;
73776;SDS011;62088;50.240;2.696;2023-08-12T05:24:49;5.80;;;1.05;;
73776;SDS011;62088;50.240;2.696;2023-08-12T05:27:16;4.68;;;1.17;;
73776;SDS011;62088;50.240;2.696;2023-08-12T05:29:43;5.05;;;1.35;;
73776;SDS011;62088;50.240;2.696;2023-08-12T05:32:10;5.35;;;1.05;;
73776;SDS011;62088;50.240;2.696;2023-08-12T05:34:37;5.25;;;0.90;;
73776;SDS011;62088;50.240;2.696;2023-08-12T05:37:04;5.68;;;0.95;;
73776;SDS011;62088;50.240;2.696;2023-08-12T05:39:31;6.95;;;0.90;;
73776;SDS011;62088;50.240;2.696;2023-08-12T05:41:58;4.00;;;1.00;;
73776;SDS011;62088;50.240;2.696;2023-08-12T05:44:25;5.63;;;1.00;;
73776;SDS011;62088;50.240;2.696;2023-08-12T05:46:52;3.38;;;0.90;;
73776;SDS011;62088;50.240;2.696;2023-08-12T05:49:19;5.28;;;0.90;;
73776;SDS011;62088;50.240;2.696;2023-08-12T05:51:46;5.50;;;1.23;;
73776;SDS011;62088;50.240;2.696;2023-08-12T05:54:13;6.47;;;1.17;;
73776;SDS011;62088;50.240;2.696;2023-08-12T05:56:40;3.05;;;0.98;;
73776;SDS011;62088;50.240;2.696;2023-08-12T05:59:07;5.03;;;1.20;;
73776;SDS011;62088;50.240;2.696;2023-08-12T06:01:34;4.95;;;1.30;;
73776;SDS011;62088;50.240;2.696;2023-08-12T06:04:01;4.40;;;1.13;;
73776;SDS011;62088;50.240;2.696;2023-08-12T06:06:28;4.25;;;1.13;;
73776;SDS011;62088;50.240;2.696;2023-08-12T06:08:55;8.02;;;1.25;;
73776;SDS011;62088;50.240;2.696;2023-08-12T06:11:23;5.88;;;1.20;;
73776;SDS011;62088;50.240;2.696;2023-08-12T06:13:50;5.43;;;1.20;;
73776;SDS011;62088;50.240;2.696;2023-08-12T06:16:17;7.20;;;1.58;;
73776;SDS011;62088;50.240;2.696;2023-08-12T06:18:44;4.75;;;1.17;;
73776;SDS011;62088;50.240;2.696;2023-08-12T06:21:11;6.15;;;1.35;;
73776;SDS011;62088;50.240;2.696;2023-08-12T06:23:38;6.90;;;1.00;;
73776;SDS011;62088;50.240;2.696;2023-08-12T06:26:05;4.38;;;1.05;;
73776;SDS011;62088;50.240;2.696;2023-08-12T06:28:32;5.28;;;1.20;;
73776;SDS011;62088;50.240;2.696;2023-08-12T06:30:59;3.88;;;1.17;;
73776;SDS011;62088;50.240;2.696;2023-08-12T06:33:26;5.22;;;1.20;;
73776;SDS011;62088;50.240;2.696;2023-08-12T06:35:53;5.47;;;1.10;;
73776;SDS011;62088;50.240;2.696;2023-08-12T06:38:20;7.15;;;0.95;;
73776;SDS011;62088;50.240;2.696;2023-08-12T06:40:47;6.15;;;1.10;;
73776;SDS011;62088;50.240;2.696;2023-08-12T06:43:14;11.82;;;1.80;;
73776;SDS011;62088;50.240;2.696;2023-08-12T06:45:41;5.60;;;1.40;;
73776;SDS011;62088;50.240;2.696;2023-08-12T06:48:08;8.43;;;1.35;;
73776;SDS011;62088;50.240;2.696;2023-08-12T06:50:35;6.13;;;1.27;;
73776;SDS011;62088;50.240;2.696;2023-08-12T06:53:02;8.38;;;1.63;;
73776;SDS011;62088;50.240;2.696;2023-08-12T06:55:29;5.28;;;1.33;;
73776;SDS011;62088;50.240;2.696;2023-08-12T06:57:56;3.97;;;1.00;;
73776;SDS011;62088;50.240;2.696;2023-08-12T07:00:23;7.85;;;1.98;;
73776;SDS011;62088;50.240;2.696;2023-08-12T07:02:50;6.22;;;1.40;;
73776;SDS011;62088;50.240;2.696;2023-08-12T07:05:18;5.30;;;1.20;;
73776;SDS011;62088;50.240;2.696;2023-08-12T07:07:45;5.07;;;1.10;;
73776;SDS011;62088;50.240;2.696;2023-08-12T07:10:12;4.43;;;1.23;;
73776;SDS011;62088;50.240;2.696;2023-08-12T07:12:39;4.95;;;1.40;;
73776;SDS011;62088;50.240;2.696;2023-08-12T07:15:06;3.83;;;1.13;;
73776;SDS011;62088;50.240;2.696;2023-08-12T07:17:33;6.88;;;1.33;;
73776;SDS011;62088;50.240;2.696;2023-08-12T07:20:00;4.03;;;1.40;;
73776;SDS011;62088;50.240;2.696;2023-08-12T07:22:28;5.85;;;1.13;;
73776;SDS011;62088;50.240;2.696;2023-08-12T07:24:56;7.45;;;1.67;;
73776;SDS011;62088;50.240;2.696;2023-08-12T07:27:26;4.10;;;1.30;;
73776;SDS011;62088;50.240;2.696;2023-08-12T07:29:54;4.95;;;1.58;;
73776;SDS011;62088;50.240;2.696;2023-08-12T07:32:21;5.13;;;1.25;;
73776;SDS011;62088;50.240;2.696;2023-08-12T07:34:48;3.42;;;1.13;;
73776;SDS011;62088;50.240;2.696;2023-08-12T07:37:15;6.60;;;1.42;;
73776;SDS011;62088;50.240;2.696;2023-08-12T07:39:42;7.95;;;1.38;;
73776;SDS011;62088;50.240;2.696;2023-08-12T07:42:09;5.35;;;1.40;;
73776;SDS011;62088;50.240;2.696;2023-08-12T07:44:37;8.05;;;1.30;;
73776;SDS011;62088;50.240;2.696;2023-08-12T07:47:04;6.85;;;1.50;;
73776;SDS011;62088;50.240;2.696;2023-08-12T07:49:31;5.50;;;1.30;;
73776;SDS011;62088;50.240;2.696;2023-08-12T07:51:58;6.20;;;1.63;;
73776;SDS011;62088;50.240;2.696;2023-08-12T07:54:25;4.47;;;1.17;;
73776;SDS011;62088;50.240;2.696;2023-08-12T07:56:52;5.30;;;1.23;;
73776;SDS011;62088;50.240;2.696;2023-08-12T07:59:22;5.78;;;1.48;;
73776;SDS011;62088;50.240;2.696;2023-08-12T08:01:49;4.88;;;1.40;;
73776;SDS011;62088;50.240;2.696;2023-08-12T08:04:16;5.72;;;1.75;;
73776;SDS011;62088;50.240;2.696;2023-08-12T08:06:44;7.65;;;1.52;;
73776;SDS011;62088;50.240;2.696;2023-08-12T08:09:11;8.88;;;1.85;;
73776;SDS011;62088;50.240;2.696;2023-08-12T08:11:38;7.43;;;1.88;;
73776;SDS011;62088;50.240;2.696;2023-08-12T08:14:05;5.72;;;1.45;;
73776;SDS011;62088;50.240;2.696;2023-08-12T08:16:32;5.78;;;1.67;;
73776;SDS011;62088;50.240;2.696;2023-08-12T08:18:59;10.68;;;1.90;;
73776;SDS011;62088;50.240;2.696;2023-08-12T08:21:26;5.85;;;1.33;;
73776;SDS011;62088;50.240;2.696;2023-08-12T08:23:53;5.90;;;1.35;;
73776;SDS011;62088;50.240;2.696;2023-08-12T08:26:20;7.20;;;1.42;;
73776;SDS011;62088;50.240;2.696;2023-08-12T08:28:47;6.18;;;1.63;;
73776;SDS011;62088;50.240;2.696;2023-08-12T08:31:14;5.95;;;1.85;;
73776;SDS011;62088;50.240;2.696;2023-08-12T08:33:41;5.75;;;1.35;;
73776;SDS011;62088;50.240;2.696;2023-08-12T08:36:10;7.75;;;1.50;;
73776;SDS011;62088;50.240;2.696;2023-08-12T08:38:37;6.85;;;1.42;;
73776;SDS011;62088;50.240;2.696;2023-08-12T08:41:05;4.03;;;1.13;;
73776;SDS011;62088;50.240;2.696;2023-08-12T08:43:35;8.68;;;2.00;;
73776;SDS011;62088;50.240;2.696;2023-08-12T08:46:03;6.38;;;1.40;;
73776;SDS011;62088;50.240;2.696;2023-08-12T08:48:32;5.28;;;1.30;;
73776;SDS011;62088;50.240;2.696;2023-08-12T08:51:03;5.38;;;1.50;;
73776;SDS011;62088;50.240;2.696;2023-08-12T08:53:31;8.88;;;1.40;;
73776;SDS011;62088;50.240;2.696;2023-08-12T08:56:05;10.48;;;1.60;;
73776;SDS011;62088;50.240;2.696;2023-08-12T08:58:40;6.38;;;1.48;;
73776;SDS011;62088;50.240;2.696;2023-08-12T09:01:07;8.02;;;1.52;;
73776;SDS011;62088;50.240;2.696;2023-08-12T09:03:53;6.78;;;1.75;;
73776;SDS011;62088;50.240;2.696;2023-08-12T09:06:22;10.85;;;1.58;;
73776;SDS011;62088;50.240;2.696;2023-08-12T09:08:52;4.60;;;1.10;;
73776;SDS011;62088;50.240;2.696;2023-08-12T09:11:19;7.13;;;1.38;;
73776;SDS011;62088;50.240;2.696;2023-08-12T09:13:47;7.28;;;1.40;;
73776;SDS011;62088;50.240;2.696;2023-08-12T09:16:15;3.53;;;1.10;;
73776;SDS011;62088;50.240;2.696;2023-08-12T09:18:42;5.45;;;1.55;;
73776;SDS011;62088;50.240;2.696;2023-08-12T09:21:11;4.32;;;1.42;;
73776;SDS011;62088;50.240;2.696;2023-08-12T09:23:38;7.80;;;1.77;;
73776;SDS011;62088;50.240;2.696;2023-08-12T09:26:26;8.90;;;1.90;;
73776;SDS011;62088;50.240;2.696;2023-08-12T09:28:54;5.70;;;1.27;;
73776;SDS011;62088;50.240;2.696;2023-08-12T09:31:22;5.00;;;1.73;;
73776;SDS011;62088;50.240;2.696;2023-08-12T09:33:51;5.20;;;1.42;;
73776;SDS011;62088;50.240;2.696;2023-08-12T09:36:18;3.38;;;1.17;;
73776;SDS011;62088;50.240;2.696;2023-08-12T09:38:48;5.78;;;1.20;;
73776;SDS011;62088;50.240;2.696;2023-08-12T09:41:15;6.90;;;1.92;;
73776;SDS011;62088;50.240;2.696;2023-08-12T09:43:43;4.75;;;1.60;;
73776;SDS011;62088;50.240;2.696;2023-08-12T09:46:11;5.55;;;1.38;;
73776;SDS011;62088;50.240;2.696;2023-08-12T09:48:42;7.25;;;1.20;;
73776;SDS011;62088;50.240;2.696;2023-08-12T09:51:09;5.18;;;1.35;;
73776;SDS011;62088;50.240;2.696;2023-08-12T09:53:37;5.63;;;1.52;;
73776;SDS011;62088;50.240;2.696;2023-08-12T09:56:07;4.45;;;1.50;;
73776;SDS011;62088;50.240;2.696;2023-08-12T09:58:37;4.97;;;1.10;;
73776;SDS011;62088;50.240;2.696;2023-08-12T10:01:06;5.80;;;1.40;;
73776;SDS011;62088;50.240;2.696;2023-08-12T10:03:36;5.57;;;1.40;;
73776;SDS011;62088;50.240;2.696;2023-08-12T10:06:04;5.75;;;1.35;;
73776;SDS011;62088;50.240;2.696;2023-08-12T10:08:31;6.93;;;1.50;;
73776;SDS011;62088;50.240;2.696;2023-08-12T10:11:01;6.13;;;1.40;;
73776;SDS011;62088;50.240;2.696;2023-08-12T10:13:39;8.57;;;1.58;;
73776;SDS011;62088;50.240;2.696;2023-08-12T10:16:08;4.95;;;1.40;;
73776;SDS011;62088;50.240;2.696;2023-08-12T10:18:36;5.65;;;1.20;;
73776;SDS011;62088;50.240;2.696;2023-08-12T10:21:08;4.57;;;1.30;;
73776;SDS011;62088;50.240;2.696;2023-08-12T10:23:37;7.45;;;1.38;;
73776;SDS011;62088;50.240;2.696;2023-08-12T10:26:05;3.78;;;1.10;;
73776;SDS011;62088;50.240;2.696;2023-08-12T10:28:33;6.03;;;1.35;;
73776;SDS011;62088;50.240;2.696;2023-08-12T10:31:04;5.72;;;1.23;;
73776;SDS011;62088;50.240;2.696;2023-08-12T10:33:38;5.07;;;1.20;;
73776;SDS011;62088;50.240;2.696;2023-08-12T10:36:07;5.50;;;1.58;;
73776;SDS011;62088;50.240;2.696;2023-08-12T10:38:36;4.75;;;1.27;;
73776;SDS011;62088;50.240;2.696;2023-08-12T10:41:22;5.68;;;1.40;;
73776;SDS011;62088;50.240;2.696;2023-08-12T10:44:00;4.75;;;1.27;;
73776;SDS011;62088;50.240;2.696;2023-08-12T10:46:35;5.72;;;1.55;;
73776;SDS011;62088;50.240;2.696;2023-08-12T10:49:07;6.30;;;1.42;;
73776;SDS011;62088;50.240;2.696;2023-08-12T10:54:37;6.65;;;1.17;;
73776;SDS011;62088;50.240;2.696;2023-08-12T10:57:05;5.18;;;1.30;;
73776;SDS011;62088;50.240;2.696;2023-08-12T10:59:53;5.32;;;1.52;;
73776;SDS011;62088;50.240;2.696;2023-08-12T11:02:25;5.15;;;1.33;;
73776;SDS011;62088;50.240;2.696;2023-08-12T11:05:03;6.05;;;1.48;;
73776;SDS011;62088;50.240;2.696;2023-08-12T11:07:41;7.80;;;1.45;;
73776;SDS011;62088;50.240;2.696;2023-08-12T11:12:47;5.78;;;1.58;;
73776;SDS011;62088;50.240;2.696;2023-08-12T11:15:17;5.60;;;1.48;;
73776;SDS011;62088;50.240;2.696;2023-08-12T11:17:46;5.70;;;1.50;;
73776;SDS011;62088;50.240;2.696;2023-08-12T11:20:13;4.95;;;1.40;;
73776;SDS011;62088;50.240;2.696;2023-08-12T11:22:41;7.80;;;1.88;;
73776;SDS011;62088;50.240;2.696;2023-08-12T11:25:10;6.50;;;1.52;;
73776;SDS011;62088;50.240;2.696;2023-08-12T11:27:40;3.97;;;1.23;;
73776;SDS011;62088;50.240;2.696;2023-08-12T11:30:09;4.72;;;1.45;;
73776;SDS011;62088;50.240;2.696;2023-08-12T11:32:46;5.82;;;1.70;;
73776;SDS011;62088;50.240;2.696;2023-08-12T11:35:14;7.95;;;2.15;;
73776;SDS011;62088;50.240;2.696;2023-08-12T11:37:43;5.50;;;1.50;;
73776;SDS011;62088;50.240;2.696;2023-08-12T11:40:14;5.53;;;1.88;;
73776;SDS011;62088;50.240;2.696;2023-08-12T11:42:44;7.78;;;2.00;;
73776;SDS011;62088;50.240;2.696;2023-08-12T11:45:14;6.75;;;1.65;;
73776;SDS011;62088;50.240;2.696;2023-08-12T11:47:45;6.63;;;1.42;;
73776;SDS011;62088;50.240;2.696;2023-08-12T11:50:19;7.70;;;2.08;;
73776;SDS011;62088;50.240;2.696;2023-08-12T11:52:48;8.27;;;1.30;;
73776;SDS011;62088;50.240;2.696;2023-08-12T11:55:16;5.53;;;1.45;;
73776;SDS011;62088;50.240;2.696;2023-08-12T11:57:44;9.23;;;2.30;;
73776;SDS011;62088;50.240;2.696;2023-08-12T12:00:12;5.40;;;1.52;;
73776;SDS011;62088;50.240;2.696;2023-08-12T12:02:45;8.50;;;1.75;;
73776;SDS011;62088;50.240;2.696;2023-08-12T12:05:17;7.53;;;1.65;;
73776;SDS011;62088;50.240;2.696;2023-08-12T12:07:50;4.40;;;1.55;;
73776;SDS011;62088;50.240;2.696;2023-08-12T12:10:20;5.93;;;1.77;;
73776;SDS011;62088;50.240;2.696;2023-08-12T12:13:00;8.57;;;1.73;;
73776;SDS011;62088;50.240;2.696;2023-08-12T12:15:28;7.80;;;2.10;;
73776;SDS011;62088;50.240;2.696;2023-08-12T12:17:56;7.80;;;1.92;;
73776;SDS011;62088;50.240;2.696;2023-08-12T12:20:23;7.57;;;1.65;;
73776;SDS011;62088;50.240;2.696;2023-08-12T12:22:50;6.50;;;1.52;;
73776;SDS011;62088;50.240;2.696;2023-08-12T12:25:17;6.47;;;2.00;;
73776;SDS011;62088;50.240;2.696;2023-08-12T12:27:46;7.13;;;1.73;;
73776;SDS011;62088;50.240;2.696;2023-08-12T12:30:14;5.43;;;1.70;;
73776;SDS011;62088;50.240;2.696;2023-08-12T12:32:42;4.93;;;1.48;;
73776;SDS011;62088;50.240;2.696;2023-08-12T12:35:09;8.43;;;1.85;;
73776;SDS011;62088;50.240;2.696;2023-08-12T12:37:37;6.13;;;1.85;;
73776;SDS011;62088;50.240;2.696;2023-08-12T12:40:05;8.13;;;2.08;;
73776;SDS011;62088;50.240;2.696;2023-08-12T12:42:33;7.68;;;1.75;;
73776;SDS011;62088;50.240;2.696;2023-08-12T12:45:01;4.97;;;1.80;;
73776;SDS011;62088;50.240;2.696;2023-08-12T12:47:28;5.63;;;1.70;;
73776;SDS011;62088;50.240;2.696;2023-08-12T12:49:55;5.82;;;1.85;;
73776;SDS011;62088;50.240;2.696;2023-08-12T12:52:22;7.32;;;2.17;;
73776;SDS011;62088;50.240;2.696;2023-08-12T12:54:49;9.30;;;2.28;;
73776;SDS011;62088;50.240;2.696;2023-08-12T12:57:16;6.25;;;1.85;;
73776;SDS011;62088;50.240;2.696;2023-08-12T12:59:43;7.47;;;2.05;;
73776;SDS011;62088;50.240;2.696;2023-08-12T13:02:30;8.40;;;1.70;;
73776;SDS011;62088;50.240;2.696;2023-08-12T13:04:58;8.10;;;2.03;;
73776;SDS011;62088;50.240;2.696;2023-08-12T13:07:25;7.10;;;1.95;;
73776;SDS011;62088;50.240;2.696;2023-08-12T13:10:11;8.60;;;1.83;;
73776;SDS011;62088;50.240;2.696;2023-08-12T13:12:38;7.47;;;1.90;;
73776;SDS011;62088;50.240;2.696;2023-08-12T13:15:05;9.15;;;2.67;;
73776;SDS011;62088;50.240;2.696;2023-08-12T13:17:33;5.05;;;1.83;;
73776;SDS011;62088;50.240;2.696;2023-08-12T13:20:00;6.57;;;2.00;;
73776;SDS011;62088;50.240;2.696;2023-08-12T13:22:27;7.18;;;1.70;;
73776;SDS011;62088;50.240;2.696;2023-08-12T13:24:54;7.47;;;2.28;;
73776;SDS011;62088;50.240;2.696;2023-08-12T13:27:22;9.60;;;2.20;;
73776;SDS011;62088;50.240;2.696;2023-08-12T13:29:49;6.20;;;1.83;;
73776;SDS011;62088;50.240;2.696;2023-08-12T13:32:16;4.97;;;1.75;;
73776;SDS011;62088;50.240;2.696;2023-08-12T13:34:43;7.03;;;2.00;;
73776;SDS011;62088;50.240;2.696;2023-08-12T13:37:12;7.57;;;2.03;;
73776;SDS011;62088;50.240;2.696;2023-08-12T13:39:39;7.10;;;2.17;;
73776;SDS011;62088;50.240;2.696;2023-08-12T13:42:07;9.57;;;2.13;;
73776;SDS011;62088;50.240;2.696;2023-08-12T13:44:34;10.32;;;2.20;;
73776;SDS011;62088;50.240;2.696;2023-08-12T13:47:01;6.45;;;1.67;;
73776;SDS011;62088;50.240;2.696;2023-08-12T13:49:28;7.47;;;1.50;;
73776;SDS011;62088;50.240;2.696;2023-08-12T13:51:55;6.10;;;2.10;;
73776;SDS011;62088;50.240;2.696;2023-08-12T13:54:22;5.80;;;2.00;;
73776;SDS011;62088;50.240;2.696;2023-08-12T13:56:49;8.02;;;1.90;;
73776;SDS011;62088;50.240;2.696;2023-08-12T13:59:16;4.93;;;2.00;;
73776;SDS011;62088;50.240;2.696;2023-08-12T14:01:43;8.45;;;2.85;;
73776;SDS011;62088;50.240;2.696;2023-08-12T14:04:10;5.55;;;1.55;;
73776;SDS011;62088;50.240;2.696;2023-08-12T14:06:37;4.47;;;1.67;;
73776;SDS011;62088;50.240;2.696;2023-08-12T14:09:06;5.78;;;1.85;;
73776;SDS011;62088;50.240;2.696;2023-08-12T14:11:57;6.15;;;1.88;;
73776;SDS011;62088;50.240;2.696;2023-08-12T14:14:25;7.65;;;2.30;;
73776;SDS011;62088;50.240;2.696;2023-08-12T14:16:54;6.95;;;1.92;;
73776;SDS011;62088;50.240;2.696;2023-08-12T14:19:21;8.32;;;2.03;;
73776;SDS011;62088;50.240;2.696;2023-08-12T14:21:48;6.85;;;2.08;;
73776;SDS011;62088;50.240;2.696;2023-08-12T14:24:15;7.40;;;2.53;;
73776;SDS011;62088;50.240;2.696;2023-08-12T14:26:42;7.38;;;1.92;;
73776;SDS011;62088;50.240;2.696;2023-08-12T14:29:09;8.20;;;2.50;;
73776;SDS011;62088;50.240;2.696;2023-08-12T14:31:36;7.82;;;1.98;;
73776;SDS011;62088;50.240;2.696;2023-08-12T14:34:03;6.75;;;2.08;;
73776;SDS011;62088;50.240;2.696;2023-08-12T14:36:31;7.10;;;2.03;;
73776;SDS011;62088;50.240;2.696;2023-08-12T14:38:58;8.40;;;2.42;;
73776;SDS011;62088;50.240;2.696;2023-08-12T14:41:25;5.65;;;1.90;;
73776;SDS011;62088;50.240;2.696;2023-08-12T14:43:52;9.15;;;2.33;;
73776;SDS011;62088;50.240;2.696;2023-08-12T14:46:19;4.68;;;1.67;;
73776;SDS011;62088;50.240;2.696;2023-08-12T14:48:46;6.70;;;1.90;;
73776;SDS011;62088;50.240;2.696;2023-08-12T14:51:13;7.50;;;2.13;;
73776;SDS011;62088;50.240;2.696;2023-08-12T14:53:41;4.70;;;1.58;;
73776;SDS011;62088;50.240;2.696;2023-08-12T14:56:08;14.43;;;2.05;;
73776;SDS011;62088;50.240;2.696;2023-08-12T14:58:36;8.45;;;2.17;;
73776;SDS011;62088;50.240;2.696;2023-08-12T15:01:03;7.10;;;1.95;;
73776;SDS011;62088;50.240;2.696;2023-08-12T15:03:31;5.60;;;1.73;;